sensor_id;sensor_type;location;lat;lon;timestamp;P1;durP1;ratioP1;P2;durP2;ratioP2
739;SDS011;354;42.694;23.336;2023-07-09T00:01:16;6.63;;;6.05;;
739;SDS011;354;42.694;23.336;2023-07-09T00:03:43;6.00;;;5.43;;
739;SDS011;354;42.694;23.336;2023-07-09T00:06:16;6.47;;;5.88;;
739;SDS011;354;42.694;23.336;2023-07-09T00:08:43;7.53;;;6.15;;
739;SDS011;354;42.694;23.336;2023-07-09T00:11:11;7.20;;;6.50;;
739;SDS011;354;42.694;23.336;2023-07-09T00:13:37;10.23;;;6.47;;
739;SDS011;354;42.694;23.336;2023-07-09T00:16:07;7.15;;;6.45;;
739;SDS011;354;42.694;23.336;2023-07-09T00:18:45;6.97;;;6.30;;
739;SDS011;354;42.694;23.336;2023-07-09T00:21:10;7.65;;;6.40;;
739;SDS011;354;42.694;23.336;2023-07-09T00:23:35;10.52;;;7.10;;
739;SDS011;354;42.694;23.336;2023-07-09T00:26:07;7.18;;;6.47;;
739;SDS011;354;42.694;23.336;2023-07-09T00:28:35;8.48;;;7.15;;
739;SDS011;354;42.694;23.336;2023-07-09T00:31:00;7.30;;;6.63;;
739;SDS011;354;42.694;23.336;2023-07-09T00:33:25;11.80;;;7.13;;
739;SDS011;354;42.694;23.336;2023-07-09T00:35:56;7.25;;;6.68;;
739;SDS011;354;42.694;23.336;2023-07-09T00:38:22;7.43;;;6.00;;
739;SDS011;354;42.694;23.336;2023-07-09T00:40:58;6.40;;;5.90;;
739;SDS011;354;42.694;23.336;2023-07-09T00:43:31;8.47;;;6.57;;
739;SDS011;354;42.694;23.336;2023-07-09T00:48:37;6.93;;;6.33;;
739;SDS011;354;42.694;23.336;2023-07-09T00:51:04;6.95;;;6.32;;
739;SDS011;354;42.694;23.336;2023-07-09T00:53:36;6.07;;;5.67;;
739;SDS011;354;42.694;23.336;2023-07-09T00:56:05;9.80;;;6.87;;
739;SDS011;354;42.694;23.336;2023-07-09T00:58:35;12.67;;;6.03;;
739;SDS011;354;42.694;23.336;2023-07-09T01:01:03;6.00;;;5.50;;
739;SDS011;354;42.694;23.336;2023-07-09T01:03:34;7.50;;;6.07;;
739;SDS011;354;42.694;23.336;2023-07-09T01:06:02;9.20;;;6.25;;
739;SDS011;354;42.694;23.336;2023-07-09T01:08:30;6.77;;;6.17;;
739;SDS011;354;42.694;23.336;2023-07-09T01:10:58;7.37;;;6.67;;
739;SDS011;354;42.694;23.336;2023-07-09T01:13:24;7.27;;;6.57;;
739;SDS011;354;42.694;23.336;2023-07-09T01:15:52;8.80;;;6.27;;
739;SDS011;354;42.694;23.336;2023-07-09T01:18:18;8.60;;;6.70;;
739;SDS011;354;42.694;23.336;2023-07-09T01:20:44;6.93;;;6.43;;
739;SDS011;354;42.694;23.336;2023-07-09T01:23:10;7.40;;;6.83;;
739;SDS011;354;42.694;23.336;2023-07-09T01:25:37;7.40;;;6.70;;
739;SDS011;354;42.694;23.336;2023-07-09T01:28:07;6.90;;;6.40;;
739;SDS011;354;42.694;23.336;2023-07-09T01:30:35;7.37;;;6.17;;
739;SDS011;354;42.694;23.336;2023-07-09T01:33:02;7.00;;;6.30;;
739;SDS011;354;42.694;23.336;2023-07-09T01:35:29;7.17;;;6.57;;
739;SDS011;354;42.694;23.336;2023-07-09T02:00:28;8.33;;;7.50;;
739;SDS011;354;42.694;23.336;2023-07-09T02:02:53;7.53;;;6.83;;
739;SDS011;354;42.694;23.336;2023-07-09T02:05:19;8.13;;;7.63;;
739;SDS011;354;42.694;23.336;2023-07-09T02:07:45;8.30;;;7.57;;
739;SDS011;354;42.694;23.336;2023-07-09T02:10:12;7.97;;;7.23;;
739;SDS011;354;42.694;23.336;2023-07-09T02:12:38;8.90;;;7.63;;
739;SDS011;354;42.694;23.336;2023-07-09T02:15:03;8.47;;;7.70;;
739;SDS011;354;42.694;23.336;2023-07-09T02:17:29;8.93;;;7.67;;
739;SDS011;354;42.694;23.336;2023-07-09T02:19:55;8.40;;;7.70;;
739;SDS011;354;42.694;23.336;2023-07-09T02:22:20;8.50;;;7.43;;
739;SDS011;354;42.694;23.336;2023-07-09T02:24:45;8.63;;;7.83;;
739;SDS011;354;42.694;23.336;2023-07-09T02:27:13;11.90;;;8.93;;
739;SDS011;354;42.694;23.336;2023-07-09T02:29:40;7.83;;;7.27;;
739;SDS011;354;42.694;23.336;2023-07-09T02:32:05;10.13;;;8.60;;
739;SDS011;354;42.694;23.336;2023-07-09T02:34:31;9.50;;;8.60;;
739;SDS011;354;42.694;23.336;2023-07-09T02:36:57;9.70;;;8.90;;
739;SDS011;354;42.694;23.336;2023-07-09T02:39:24;9.23;;;8.53;;
739;SDS011;354;42.694;23.336;2023-07-09T02:41:50;9.73;;;8.93;;
739;SDS011;354;42.694;23.336;2023-07-09T02:44:15;9.33;;;8.47;;
739;SDS011;354;42.694;23.336;2023-07-09T02:46:41;8.73;;;8.00;;
739;SDS011;354;42.694;23.336;2023-07-09T02:49:08;10.13;;;9.30;;
739;SDS011;354;42.694;23.336;2023-07-09T02:51:35;10.27;;;9.37;;
739;SDS011;354;42.694;23.336;2023-07-09T02:54:01;10.73;;;10.03;;
739;SDS011;354;42.694;23.336;2023-07-09T02:56:28;10.77;;;9.93;;
739;SDS011;354;42.694;23.336;2023-07-09T02:58:54;12.00;;;9.73;;
739;SDS011;354;42.694;23.336;2023-07-09T03:01:19;11.03;;;10.03;;
739;SDS011;354;42.694;23.336;2023-07-09T03:03:53;10.20;;;9.30;;
739;SDS011;354;42.694;23.336;2023-07-09T03:06:20;10.00;;;9.23;;
739;SDS011;354;42.694;23.336;2023-07-09T03:08:46;10.57;;;9.50;;
739;SDS011;354;42.694;23.336;2023-07-09T03:11:12;10.07;;;9.17;;
739;SDS011;354;42.694;23.336;2023-07-09T03:13:38;10.97;;;10.10;;
739;SDS011;354;42.694;23.336;2023-07-09T03:16:04;10.77;;;9.60;;
739;SDS011;354;42.694;23.336;2023-07-09T03:18:30;10.93;;;10.03;;
739;SDS011;354;42.694;23.336;2023-07-09T03:20:57;11.03;;;10.03;;
739;SDS011;354;42.694;23.336;2023-07-09T03:23:23;12.63;;;10.27;;
739;SDS011;354;42.694;23.336;2023-07-09T03:25:48;10.77;;;9.77;;
739;SDS011;354;42.694;23.336;2023-07-09T03:28:14;11.47;;;10.63;;
739;SDS011;354;42.694;23.336;2023-07-09T03:30:41;10.23;;;9.43;;
739;SDS011;354;42.694;23.336;2023-07-09T03:33:07;11.10;;;10.00;;
739;SDS011;354;42.694;23.336;2023-07-09T03:35:34;11.40;;;10.60;;
739;SDS011;354;42.694;23.336;2023-07-09T03:38:00;10.43;;;9.43;;
739;SDS011;354;42.694;23.336;2023-07-09T03:40:25;10.87;;;9.93;;
739;SDS011;354;42.694;23.336;2023-07-09T03:42:51;10.97;;;10.27;;
739;SDS011;354;42.694;23.336;2023-07-09T03:45:16;10.47;;;9.30;;
739;SDS011;354;42.694;23.336;2023-07-09T03:47:41;10.23;;;9.23;;
739;SDS011;354;42.694;23.336;2023-07-09T03:50:08;10.03;;;9.23;;
739;SDS011;354;42.694;23.336;2023-07-09T03:52:34;10.40;;;9.60;;
739;SDS011;354;42.694;23.336;2023-07-09T03:55:00;10.33;;;9.47;;
739;SDS011;354;42.694;23.336;2023-07-09T03:57:29;10.63;;;9.53;;
739;SDS011;354;42.694;23.336;2023-07-09T03:59:58;10.43;;;9.40;;
739;SDS011;354;42.694;23.336;2023-07-09T04:02:23;9.67;;;8.83;;
739;SDS011;354;42.694;23.336;2023-07-09T04:04:49;9.97;;;9.27;;
739;SDS011;354;42.694;23.336;2023-07-09T04:07:14;9.63;;;8.83;;
739;SDS011;354;42.694;23.336;2023-07-09T04:09:40;9.80;;;8.90;;
739;SDS011;354;42.694;23.336;2023-07-09T04:12:06;10.60;;;9.53;;
739;SDS011;354;42.694;23.336;2023-07-09T04:14:32;9.53;;;8.53;;
739;SDS011;354;42.694;23.336;2023-07-09T04:16:58;10.20;;;9.30;;
739;SDS011;354;42.694;23.336;2023-07-09T04:19:23;10.10;;;9.07;;
739;SDS011;354;42.694;23.336;2023-07-09T04:21:49;9.27;;;8.60;;
739;SDS011;354;42.694;23.336;2023-07-09T04:24:16;10.73;;;8.40;;
739;SDS011;354;42.694;23.336;2023-07-09T04:26:43;14.40;;;9.00;;
739;SDS011;354;42.694;23.336;2023-07-09T04:29:09;9.80;;;8.53;;
739;SDS011;354;42.694;23.336;2023-07-09T04:31:35;8.32;;;7.57;;
739;SDS011;354;42.694;23.336;2023-07-09T04:34:00;9.23;;;8.20;;
739;SDS011;354;42.694;23.336;2023-07-09T04:36:26;8.60;;;7.85;;
739;SDS011;354;42.694;23.336;2023-07-09T04:38:51;8.63;;;7.85;;
739;SDS011;354;42.694;23.336;2023-07-09T04:41:17;8.38;;;7.68;;
739;SDS011;354;42.694;23.336;2023-07-09T04:43:42;8.55;;;7.75;;
739;SDS011;354;42.694;23.336;2023-07-09T04:46:08;8.32;;;7.45;;
739;SDS011;354;42.694;23.336;2023-07-09T04:48:34;8.40;;;7.43;;
739;SDS011;354;42.694;23.336;2023-07-09T04:50:59;8.07;;;6.68;;
739;SDS011;354;42.694;23.336;2023-07-09T04:53:25;7.95;;;7.28;;
739;SDS011;354;42.694;23.336;2023-07-09T04:55:50;8.52;;;7.70;;
739;SDS011;354;42.694;23.336;2023-07-09T04:58:16;11.23;;;8.85;;
739;SDS011;354;42.694;23.336;2023-07-09T05:00:43;8.95;;;8.15;;
739;SDS011;354;42.694;23.336;2023-07-09T05:03:09;9.05;;;8.43;;
739;SDS011;354;42.694;23.336;2023-07-09T05:05:34;8.68;;;7.78;;
739;SDS011;354;42.694;23.336;2023-07-09T05:07:59;8.57;;;7.70;;
739;SDS011;354;42.694;23.336;2023-07-09T05:10:25;8.80;;;7.78;;
739;SDS011;354;42.694;23.336;2023-07-09T05:12:52;8.27;;;7.47;;
739;SDS011;354;42.694;23.336;2023-07-09T05:15:20;9.98;;;7.90;;
739;SDS011;354;42.694;23.336;2023-07-09T05:17:47;8.68;;;7.75;;
739;SDS011;354;42.694;23.336;2023-07-09T05:20:13;9.55;;;8.25;;
739;SDS011;354;42.694;23.336;2023-07-09T05:22:39;9.35;;;8.35;;
739;SDS011;354;42.694;23.336;2023-07-09T05:25:05;9.35;;;8.45;;
739;SDS011;354;42.694;23.336;2023-07-09T05:27:31;10.07;;;8.77;;
739;SDS011;354;42.694;23.336;2023-07-09T05:29:56;9.77;;;8.60;;
739;SDS011;354;42.694;23.336;2023-07-09T05:32:23;8.68;;;7.65;;
739;SDS011;354;42.694;23.336;2023-07-09T05:34:48;8.38;;;7.57;;
739;SDS011;354;42.694;23.336;2023-07-09T05:37:14;9.70;;;8.90;;
739;SDS011;354;42.694;23.336;2023-07-09T05:39:39;13.57;;;9.23;;
739;SDS011;354;42.694;23.336;2023-07-09T05:42:05;8.25;;;7.45;;
739;SDS011;354;42.694;23.336;2023-07-09T05:44:31;7.88;;;7.28;;
739;SDS011;354;42.694;23.336;2023-07-09T05:46:56;8.02;;;7.30;;
739;SDS011;354;42.694;23.336;2023-07-09T05:49:21;7.88;;;7.28;;
739;SDS011;354;42.694;23.336;2023-07-09T05:51:47;9.02;;;8.32;;
739;SDS011;354;42.694;23.336;2023-07-09T05:54:12;9.77;;;8.95;;
739;SDS011;354;42.694;23.336;2023-07-09T05:56:38;9.35;;;8.48;;
739;SDS011;354;42.694;23.336;2023-07-09T05:59:03;9.18;;;8.15;;
739;SDS011;354;42.694;23.336;2023-07-09T06:01:29;9.55;;;8.55;;
739;SDS011;354;42.694;23.336;2023-07-09T06:03:54;8.70;;;8.10;;
739;SDS011;354;42.694;23.336;2023-07-09T06:06:21;8.65;;;7.85;;
739;SDS011;354;42.694;23.336;2023-07-09T06:08:47;8.65;;;7.93;;
739;SDS011;354;42.694;23.336;2023-07-09T06:11:12;8.95;;;8.35;;
739;SDS011;354;42.694;23.336;2023-07-09T06:13:38;10.38;;;9.48;;
739;SDS011;354;42.694;23.336;2023-07-09T06:16:03;8.77;;;7.97;;
739;SDS011;354;42.694;23.336;2023-07-09T06:18:30;8.40;;;7.72;;
739;SDS011;354;42.694;23.336;2023-07-09T06:20:57;8.82;;;7.90;;
739;SDS011;354;42.694;23.336;2023-07-09T06:23:23;7.60;;;6.90;;
739;SDS011;354;42.694;23.336;2023-07-09T06:25:49;8.20;;;7.55;;
739;SDS011;354;42.694;23.336;2023-07-09T06:28:16;7.97;;;7.28;;
739;SDS011;354;42.694;23.336;2023-07-09T06:30:44;8.88;;;8.07;;
739;SDS011;354;42.694;23.336;2023-07-09T06:33:10;11.20;;;7.47;;
739;SDS011;354;42.694;23.336;2023-07-09T06:35:38;10.00;;;9.20;;
739;SDS011;354;42.694;23.336;2023-07-09T06:38:04;7.68;;;7.18;;
739;SDS011;354;42.694;23.336;2023-07-09T06:40:30;10.15;;;8.40;;
739;SDS011;354;42.694;23.336;2023-07-09T06:42:56;9.23;;;8.38;;
739;SDS011;354;42.694;23.336;2023-07-09T06:45:22;9.10;;;8.18;;
739;SDS011;354;42.694;23.336;2023-07-09T06:47:48;8.55;;;7.85;;
739;SDS011;354;42.694;23.336;2023-07-09T06:50:14;8.55;;;7.85;;
739;SDS011;354;42.694;23.336;2023-07-09T06:52:40;8.73;;;8.02;;
739;SDS011;354;42.694;23.336;2023-07-09T06:55:06;8.27;;;7.70;;
739;SDS011;354;42.694;23.336;2023-07-09T06:57:32;9.07;;;8.40;;
739;SDS011;354;42.694;23.336;2023-07-09T06:59:58;8.60;;;7.80;;
739;SDS011;354;42.694;23.336;2023-07-09T07:02:23;9.18;;;8.35;;
739;SDS011;354;42.694;23.336;2023-07-09T07:04:49;8.35;;;7.78;;
739;SDS011;354;42.694;23.336;2023-07-09T07:07:14;8.73;;;8.02;;
739;SDS011;354;42.694;23.336;2023-07-09T07:09:40;8.23;;;7.63;;
739;SDS011;354;42.694;23.336;2023-07-09T07:12:05;8.30;;;7.70;;
739;SDS011;354;42.694;23.336;2023-07-09T07:14:31;7.97;;;7.28;;
739;SDS011;354;42.694;23.336;2023-07-09T07:16:56;9.27;;;8.38;;
739;SDS011;354;42.694;23.336;2023-07-09T07:19:22;7.88;;;7.38;;
739;SDS011;354;42.694;23.336;2023-07-09T07:21:48;8.88;;;8.00;;
739;SDS011;354;42.694;23.336;2023-07-09T07:24:13;8.15;;;7.43;;
739;SDS011;354;42.694;23.336;2023-07-09T07:26:39;8.45;;;7.68;;
739;SDS011;354;42.694;23.336;2023-07-09T07:29:04;8.07;;;7.38;;
739;SDS011;354;42.694;23.336;2023-07-09T07:31:30;8.40;;;7.80;;
739;SDS011;354;42.694;23.336;2023-07-09T07:33:55;8.32;;;7.53;;
739;SDS011;354;42.694;23.336;2023-07-09T07:36:20;7.50;;;6.90;;
739;SDS011;354;42.694;23.336;2023-07-09T07:38:46;8.23;;;7.63;;
739;SDS011;354;42.694;23.336;2023-07-09T07:41:11;8.35;;;7.72;;
739;SDS011;354;42.694;23.336;2023-07-09T07:43:36;9.45;;;7.15;;
739;SDS011;354;42.694;23.336;2023-07-09T07:46:02;8.05;;;7.38;;
739;SDS011;354;42.694;23.336;2023-07-09T07:48:28;10.02;;;7.13;;
739;SDS011;354;42.694;23.336;2023-07-09T07:51:02;8.30;;;7.57;;
739;SDS011;354;42.694;23.336;2023-07-09T07:53:29;8.13;;;7.38;;
739;SDS011;354;42.694;23.336;2023-07-09T07:55:57;7.28;;;6.82;;
739;SDS011;354;42.694;23.336;2023-07-09T07:58:23;7.45;;;6.75;;
739;SDS011;354;42.694;23.336;2023-07-09T08:00:48;7.88;;;7.18;;
739;SDS011;354;42.694;23.336;2023-07-09T08:03:14;8.13;;;7.60;;
739;SDS011;354;42.694;23.336;2023-07-09T08:05:39;8.30;;;7.57;;
739;SDS011;354;42.694;23.336;2023-07-09T08:08:04;7.82;;;7.13;;
739;SDS011;354;42.694;23.336;2023-07-09T08:10:30;8.20;;;7.55;;
739;SDS011;354;42.694;23.336;2023-07-09T08:12:55;7.22;;;6.63;;
739;SDS011;354;42.694;23.336;2023-07-09T08:15:23;8.20;;;7.60;;
739;SDS011;354;42.694;23.336;2023-07-09T08:17:49;7.68;;;7.18;;
739;SDS011;354;42.694;23.336;2023-07-09T08:20:14;8.43;;;7.82;;
739;SDS011;354;42.694;23.336;2023-07-09T08:22:39;9.10;;;7.50;;
739;SDS011;354;42.694;23.336;2023-07-09T08:25:06;7.95;;;7.32;;
739;SDS011;354;42.694;23.336;2023-07-09T08:27:31;7.90;;;7.40;;
739;SDS011;354;42.694;23.336;2023-07-09T08:29:57;8.40;;;7.75;;
739;SDS011;354;42.694;23.336;2023-07-09T08:32:22;7.18;;;6.78;;
739;SDS011;354;42.694;23.336;2023-07-09T08:34:47;8.27;;;7.78;;
739;SDS011;354;42.694;23.336;2023-07-09T08:37:13;8.80;;;7.97;;
739;SDS011;354;42.694;23.336;2023-07-09T08:39:38;7.97;;;7.22;;
739;SDS011;354;42.694;23.336;2023-07-09T08:42:04;8.20;;;7.50;;
739;SDS011;354;42.694;23.336;2023-07-09T08:49:54;8.43;;;7.82;;
739;SDS011;354;42.694;23.336;2023-07-09T08:52:39;8.82;;;8.13;;
739;SDS011;354;42.694;23.336;2023-07-09T08:55:08;8.95;;;8.25;;
739;SDS011;354;42.694;23.336;2023-07-09T08:57:47;9.18;;;8.38;;
739;SDS011;354;42.694;23.336;2023-07-09T09:00:24;8.30;;;7.70;;
739;SDS011;354;42.694;23.336;2023-07-09T09:02:55;8.35;;;7.75;;
739;SDS011;354;42.694;23.336;2023-07-09T09:05:28;8.82;;;7.97;;
739;SDS011;354;42.694;23.336;2023-07-09T09:08:02;8.52;;;7.88;;
739;SDS011;354;42.694;23.336;2023-07-09T09:10:46;8.38;;;7.68;;
739;SDS011;354;42.694;23.336;2023-07-09T09:13:17;8.45;;;7.80;;
739;SDS011;354;42.694;23.336;2023-07-09T09:15:48;8.82;;;8.23;;
739;SDS011;354;42.694;23.336;2023-07-09T09:18:19;9.75;;;9.00;;
739;SDS011;354;42.694;23.336;2023-07-09T09:20:57;8.05;;;7.45;;
739;SDS011;354;42.694;23.336;2023-07-09T09:23:29;8.30;;;7.80;;
739;SDS011;354;42.694;23.336;2023-07-09T09:26:02;8.80;;;8.10;;
739;SDS011;354;42.694;23.336;2023-07-09T09:28:43;8.57;;;7.82;;
739;SDS011;354;42.694;23.336;2023-07-09T09:31:11;8.05;;;7.45;;
739;SDS011;354;42.694;23.336;2023-07-09T09:33:40;8.25;;;7.55;;
739;SDS011;354;42.694;23.336;2023-07-09T09:36:14;8.40;;;7.82;;
739;SDS011;354;42.694;23.336;2023-07-09T09:38:42;8.07;;;7.47;;
739;SDS011;354;42.694;23.336;2023-07-09T09:41:13;8.75;;;8.00;;
739;SDS011;354;42.694;23.336;2023-07-09T09:43:41;13.88;;;12.73;;
739;SDS011;354;42.694;23.336;2023-07-09T09:46:07;7.78;;;7.18;;
739;SDS011;354;42.694;23.336;2023-07-09T09:48:33;8.90;;;7.32;;
739;SDS011;354;42.694;23.336;2023-07-09T09:50:59;10.73;;;8.30;;
739;SDS011;354;42.694;23.336;2023-07-09T09:53:28;10.05;;;8.30;;
739;SDS011;354;42.694;23.336;2023-07-09T09:55:55;8.13;;;7.43;;
739;SDS011;354;42.694;23.336;2023-07-09T09:58:28;7.85;;;7.15;;
739;SDS011;354;42.694;23.336;2023-07-09T10:00:55;9.85;;;9.00;;
739;SDS011;354;42.694;23.336;2023-07-09T10:03:21;12.07;;;7.95;;
739;SDS011;354;42.694;23.336;2023-07-09T10:05:58;8.68;;;7.93;;
739;SDS011;354;42.694;23.336;2023-07-09T10:14:31;9.93;;;9.23;;
739;SDS011;354;42.694;23.336;2023-07-09T10:17:20;8.20;;;7.57;;
739;SDS011;354;42.694;23.336;2023-07-09T10:19:56;8.15;;;7.50;;
739;SDS011;354;42.694;23.336;2023-07-09T10:22:40;7.80;;;6.85;;
739;SDS011;354;42.694;23.336;2023-07-09T10:33:46;7.20;;;6.60;;
739;SDS011;354;42.694;23.336;2023-07-09T10:36:40;7.78;;;7.07;;
739;SDS011;354;42.694;23.336;2023-07-09T10:39:26;7.90;;;7.18;;
739;SDS011;354;42.694;23.336;2023-07-09T10:41:57;7.38;;;6.82;;
739;SDS011;354;42.694;23.336;2023-07-09T10:44:35;8.10;;;7.57;;
739;SDS011;354;42.694;23.336;2023-07-09T10:47:06;7.18;;;6.57;;
739;SDS011;354;42.694;23.336;2023-07-09T10:49:38;8.00;;;7.30;;
739;SDS011;354;42.694;23.336;2023-07-09T10:52:16;7.05;;;6.65;;
739;SDS011;354;42.694;23.336;2023-07-09T10:57:42;10.43;;;9.45;;
739;SDS011;354;42.694;23.336;2023-07-09T11:00:35;7.15;;;6.45;;
739;SDS011;354;42.694;23.336;2023-07-09T11:03:05;7.80;;;7.18;;
739;SDS011;354;42.694;23.336;2023-07-09T11:05:56;8.60;;;7.90;;
739;SDS011;354;42.694;23.336;2023-07-09T11:08:23;6.82;;;6.35;;
739;SDS011;354;42.694;23.336;2023-07-09T11:10:55;7.35;;;6.72;;
739;SDS011;354;42.694;23.336;2023-07-09T11:16:00;7.57;;;6.95;;
739;SDS011;354;42.694;23.336;2023-07-09T11:18:30;7.30;;;6.80;;
739;SDS011;354;42.694;23.336;2023-07-09T11:21:00;7.72;;;7.13;;
739;SDS011;354;42.694;23.336;2023-07-09T11:23:43;7.25;;;6.78;;
739;SDS011;354;42.694;23.336;2023-07-09T11:28:38;7.70;;;7.10;;
739;SDS011;354;42.694;23.336;2023-07-09T11:31:18;7.43;;;7.03;;
739;SDS011;354;42.694;23.336;2023-07-09T11:33:49;6.80;;;6.40;;
739;SDS011;354;42.694;23.336;2023-07-09T11:36:26;7.05;;;6.60;;
739;SDS011;354;42.694;23.336;2023-07-09T11:38:53;7.93;;;6.95;;
739;SDS011;354;42.694;23.336;2023-07-09T11:46:52;7.57;;;6.90;;
739;SDS011;354;42.694;23.336;2023-07-09T11:49:24;6.72;;;6.20;;
739;SDS011;354;42.694;23.336;2023-07-09T11:51:59;7.38;;;6.63;;
739;SDS011;354;42.694;23.336;2023-07-09T11:54:32;7.75;;;7.25;;
739;SDS011;354;42.694;23.336;2023-07-09T11:57:00;8.02;;;7.35;;
739;SDS011;354;42.694;23.336;2023-07-09T11:59:28;7.65;;;6.88;;
739;SDS011;354;42.694;23.336;2023-07-09T12:01:53;6.88;;;6.38;;
739;SDS011;354;42.694;23.336;2023-07-09T12:04:23;7.00;;;6.60;;
739;SDS011;354;42.694;23.336;2023-07-09T12:06:57;7.32;;;6.82;;
739;SDS011;354;42.694;23.336;2023-07-09T12:09:24;7.38;;;6.63;;
739;SDS011;354;42.694;23.336;2023-07-09T12:11:56;6.85;;;6.32;;
739;SDS011;354;42.694;23.336;2023-07-09T12:14:22;6.60;;;6.15;;
739;SDS011;354;42.694;23.336;2023-07-09T12:16:52;6.88;;;6.38;;
739;SDS011;354;42.694;23.336;2023-07-09T12:19:19;8.00;;;7.40;;
739;SDS011;354;42.694;23.336;2023-07-09T12:21:48;7.05;;;6.60;;
739;SDS011;354;42.694;23.336;2023-07-09T12:24:22;7.03;;;6.32;;
739;SDS011;354;42.694;23.336;2023-07-09T12:26:52;7.47;;;6.97;;
739;SDS011;354;42.694;23.336;2023-07-09T12:29:19;8.68;;;8.07;;
739;SDS011;354;42.694;23.336;2023-07-09T12:31:45;7.07;;;6.57;;
739;SDS011;354;42.694;23.336;2023-07-09T12:34:12;7.20;;;6.60;;
739;SDS011;354;42.694;23.336;2023-07-09T12:36:43;7.00;;;6.30;;
739;SDS011;354;42.694;23.336;2023-07-09T12:39:13;7.45;;;6.72;;
739;SDS011;354;42.694;23.336;2023-07-09T12:41:42;7.13;;;6.63;;
739;SDS011;354;42.694;23.336;2023-07-09T12:44:19;7.25;;;6.70;;
739;SDS011;354;42.694;23.336;2023-07-09T12:46:46;6.68;;;6.28;;
739;SDS011;354;42.694;23.336;2023-07-09T12:52:00;6.90;;;6.40;;
739;SDS011;354;42.694;23.336;2023-07-09T12:54:28;7.47;;;6.70;;
739;SDS011;354;42.694;23.336;2023-07-09T12:56:55;6.85;;;6.45;;
739;SDS011;354;42.694;23.336;2023-07-09T12:59:23;6.90;;;6.40;;
739;SDS011;354;42.694;23.336;2023-07-09T13:01:53;6.28;;;5.78;;
739;SDS011;354;42.694;23.336;2023-07-09T13:04:21;6.90;;;6.40;;
739;SDS011;354;42.694;23.336;2023-07-09T13:06:52;6.95;;;6.45;;
739;SDS011;354;42.694;23.336;2023-07-09T13:09:22;7.95;;;7.07;;
739;SDS011;354;42.694;23.336;2023-07-09T13:11:48;9.57;;;6.40;;
739;SDS011;354;42.694;23.336;2023-07-09T13:14:27;7.30;;;6.60;;
739;SDS011;354;42.694;23.336;2023-07-09T13:17:04;6.32;;;5.88;;
739;SDS011;354;42.694;23.336;2023-07-09T13:19:30;6.90;;;6.40;;
739;SDS011;354;42.694;23.336;2023-07-09T13:21:55;7.05;;;6.40;;
739;SDS011;354;42.694;23.336;2023-07-09T13:24:25;6.82;;;6.32;;
739;SDS011;354;42.694;23.336;2023-07-09T13:26:53;7.30;;;6.70;;
739;SDS011;354;42.694;23.336;2023-07-09T13:29:19;7.25;;;6.70;;
739;SDS011;354;42.694;23.336;2023-07-09T13:31:45;6.70;;;6.30;;
739;SDS011;354;42.694;23.336;2023-07-09T13:34:21;7.25;;;6.65;;
739;SDS011;354;42.694;23.336;2023-07-09T13:36:50;7.28;;;6.65;;
739;SDS011;354;42.694;23.336;2023-07-09T13:39:16;7.35;;;6.80;;
739;SDS011;354;42.694;23.336;2023-07-09T13:41:43;7.43;;;6.82;;
739;SDS011;354;42.694;23.336;2023-07-09T13:44:17;7.70;;;7.10;;
739;SDS011;354;42.694;23.336;2023-07-09T13:46:45;7.40;;;6.88;;
739;SDS011;354;42.694;23.336;2023-07-09T13:49:11;7.95;;;7.25;;
739;SDS011;354;42.694;23.336;2023-07-09T13:51:40;7.60;;;6.88;;
739;SDS011;354;42.694;23.336;2023-07-09T13:56:47;7.13;;;6.53;;
739;SDS011;354;42.694;23.336;2023-07-09T13:59:19;8.07;;;7.38;;
739;SDS011;354;42.694;23.336;2023-07-09T14:01:49;7.82;;;6.97;;
739;SDS011;354;42.694;23.336;2023-07-09T14:04:17;7.18;;;6.60;;
739;SDS011;354;42.694;23.336;2023-07-09T14:06:43;7.40;;;6.80;;
739;SDS011;354;42.694;23.336;2023-07-09T14:09:11;7.47;;;6.88;;
739;SDS011;354;42.694;23.336;2023-07-09T14:11:38;11.15;;;9.93;;
739;SDS011;354;42.694;23.336;2023-07-09T14:14:23;7.97;;;7.35;;
739;SDS011;354;42.694;23.336;2023-07-09T14:16:52;6.82;;;6.43;;
739;SDS011;354;42.694;23.336;2023-07-09T14:19:19;6.63;;;6.22;;
739;SDS011;354;42.694;23.336;2023-07-09T14:21:47;7.97;;;7.38;;
739;SDS011;354;42.694;23.336;2023-07-09T14:24:20;7.68;;;7.07;;
739;SDS011;354;42.694;23.336;2023-07-09T14:26:48;7.53;;;6.80;;
739;SDS011;354;42.694;23.336;2023-07-09T14:29:15;9.30;;;7.18;;
739;SDS011;354;42.694;23.336;2023-07-09T14:31:41;7.68;;;7.18;;
739;SDS011;354;42.694;23.336;2023-07-09T14:34:18;7.32;;;6.82;;
739;SDS011;354;42.694;23.336;2023-07-09T14:36:46;7.70;;;7.18;;
739;SDS011;354;42.694;23.336;2023-07-09T14:39:12;8.30;;;7.22;;
739;SDS011;354;42.694;23.336;2023-07-09T14:41:37;7.07;;;6.47;;
739;SDS011;354;42.694;23.336;2023-07-09T14:44:05;7.97;;;7.28;;
739;SDS011;354;42.694;23.336;2023-07-09T14:46:47;8.05;;;7.13;;
739;SDS011;354;42.694;23.336;2023-07-09T14:49:13;8.27;;;7.60;;
739;SDS011;354;42.694;23.336;2023-07-09T14:51:38;7.75;;;7.05;;
739;SDS011;354;42.694;23.336;2023-07-09T14:54:08;7.30;;;6.85;;
739;SDS011;354;42.694;23.336;2023-07-09T14:56:42;7.10;;;6.60;;
739;SDS011;354;42.694;23.336;2023-07-09T14:59:08;7.07;;;6.40;;
739;SDS011;354;42.694;23.336;2023-07-09T15:01:33;8.40;;;7.00;;
739;SDS011;354;42.694;23.336;2023-07-09T15:03:59;7.85;;;7.25;;
739;SDS011;354;42.694;23.336;2023-07-09T15:06:24;7.40;;;6.90;;
739;SDS011;354;42.694;23.336;2023-07-09T15:08:49;7.22;;;6.82;;
739;SDS011;354;42.694;23.336;2023-07-09T15:11:15;7.70;;;7.20;;
739;SDS011;354;42.694;23.336;2023-07-09T15:13:40;8.15;;;6.63;;
739;SDS011;354;42.694;23.336;2023-07-09T15:16:05;7.03;;;6.43;;
739;SDS011;354;42.694;23.336;2023-07-09T15:18:31;7.60;;;6.63;;
739;SDS011;354;42.694;23.336;2023-07-09T15:21:00;6.82;;;6.40;;
739;SDS011;354;42.694;23.336;2023-07-09T15:23:27;7.18;;;6.68;;
739;SDS011;354;42.694;23.336;2023-07-09T15:25:54;10.15;;;6.70;;
739;SDS011;354;42.694;23.336;2023-07-09T15:28:19;7.68;;;6.88;;
739;SDS011;354;42.694;23.336;2023-07-09T15:30:45;7.00;;;6.60;;
739;SDS011;354;42.694;23.336;2023-07-09T15:33:15;7.05;;;6.45;;
739;SDS011;354;42.694;23.336;2023-07-09T15:35:45;8.23;;;7.53;;
739;SDS011;354;42.694;23.336;2023-07-09T15:40:43;7.88;;;7.15;;
739;SDS011;354;42.694;23.336;2023-07-09T15:43:08;7.50;;;6.93;;
739;SDS011;354;42.694;23.336;2023-07-09T15:45:37;10.82;;;8.55;;
739;SDS011;354;42.694;23.336;2023-07-09T15:48:23;7.35;;;6.85;;
739;SDS011;354;42.694;23.336;2023-07-09T15:50:51;8.20;;;7.60;;
739;SDS011;354;42.694;23.336;2023-07-09T15:53:17;7.78;;;7.18;;
739;SDS011;354;42.694;23.336;2023-07-09T15:55:43;8.52;;;7.78;;
739;SDS011;354;42.694;23.336;2023-07-09T15:58:11;7.93;;;7.32;;
739;SDS011;354;42.694;23.336;2023-07-09T16:00:43;9.35;;;8.55;;
739;SDS011;354;42.694;23.336;2023-07-09T16:03:10;8.68;;;7.95;;
739;SDS011;354;42.694;23.336;2023-07-09T16:05:36;8.10;;;7.47;;
739;SDS011;354;42.694;23.336;2023-07-09T16:08:02;7.65;;;7.10;;
739;SDS011;354;42.694;23.336;2023-07-09T16:10:28;8.13;;;7.53;;
739;SDS011;354;42.694;23.336;2023-07-09T16:12:55;8.32;;;7.78;;
739;SDS011;354;42.694;23.336;2023-07-09T16:15:22;10.77;;;9.90;;
739;SDS011;354;42.694;23.336;2023-07-09T16:17:51;8.77;;;7.80;;
739;SDS011;354;42.694;23.336;2023-07-09T16:20:18;8.00;;;7.40;;
739;SDS011;354;42.694;23.336;2023-07-09T16:22:51;9.25;;;7.05;;
739;SDS011;354;42.694;23.336;2023-07-09T16:25:23;7.68;;;7.03;;
739;SDS011;354;42.694;23.336;2023-07-09T16:27:51;9.13;;;8.32;;
739;SDS011;354;42.694;23.336;2023-07-09T16:30:17;7.43;;;6.93;;
739;SDS011;354;42.694;23.336;2023-07-09T16:32:49;7.65;;;7.15;;
739;SDS011;354;42.694;23.336;2023-07-09T16:35:15;8.10;;;7.60;;
739;SDS011;354;42.694;23.336;2023-07-09T16:37:43;7.57;;;6.88;;
739;SDS011;354;42.694;23.336;2023-07-09T16:40:31;7.93;;;7.32;;